Time;durP1;ratioP1;P1;durP2;ratioP2;P2;SDS_P1;SDS_P2;PMS_P1;PMS_P2;Temp;Humidity;BMP_temperature;BMP_pressure;BME280_temperature;BME280_humidity;BME280_pressure;Samples;Min_cycle;Max_cycle;Signal;HPM_P1;HPM_P2
2023/02/01 00:00:00;;;;;;;6.20;3.50;;;;;;;4.41;100.00;98830.31;5011757;28;20212;-76
2023/02/01 00:02:26;;;;;;;4.17;2.53;;;;;;;4.39;100.00;98832.13;5012051;28;20214;-76
2023/02/01 00:04:53;;;;;;;2.90;2.40;;;;;;;4.39;100.00;98828.66;5012121;28;20235;-76
2023/02/01 00:07:19;;;;;;;5.00;2.90;;;;;;;4.35;100.00;98825.28;5012050;28;20215;-76
2023/02/01 00:09:46;;;;;;;3.83;2.63;;;;;;;4.37;100.00;98813.00;5011847;28;20222;-76
2023/02/01 00:12:14;;;;;;;4.37;2.70;;;;;;;4.36;100.00;98821.78;5011944;28;20594;-76
2023/02/01 00:14:40;;;;;;;2.90;2.43;;;;;;;4.33;100.00;98821.88;5011895;28;20238;-77
2023/02/01 00:17:07;;;;;;;3.17;2.50;;;;;;;4.33;100.00;98807.94;5011842;28;20225;-76
2023/02/01 00:19:34;;;;;;;3.27;2.10;;;;;;;4.26;100.00;98809.91;5011685;28;20211;-77
2023/02/01 00:22:01;;;;;;;2.77;2.40;;;;;;;4.27;100.00;98801.13;5011961;28;20220;-77
2023/02/01 00:24:27;;;;;;;2.80;2.13;;;;;;;4.21;100.00;98803.13;5011698;28;20234;-76
2023/02/01 00:26:54;;;;;;;3.47;2.37;;;;;;;4.17;100.00;98794.50;5011728;28;20236;-75
2023/02/01 00:29:22;;;;;;;2.37;2.00;;;;;;;4.15;100.00;98791.09;5011677;28;20214;-79
2023/02/01 00:31:51;;;;;;;2.33;2.13;;;;;;;4.17;100.00;98791.88;5011757;28;20237;-78
2023/02/01 00:34:20;;;;;;;3.80;1.97;;;;;;;4.11;100.00;98789.50;5011131;28;20225;-78
2023/02/01 00:36:47;;;;;;;2.33;2.00;;;;;;;4.12;100.00;98785.09;5011798;28;20212;-75
2023/02/01 00:39:15;;;;;;;2.00;1.80;;;;;;;4.08;100.00;98786.97;5011229;28;20206;-78
2023/02/01 00:41:41;;;;;;;2.03;1.83;;;;;;;4.08;100.00;98792.19;5011435;28;20300;-75
2023/02/01 00:44:08;;;;;;;2.87;2.20;;;;;;;4.12;100.00;98790.34;5011784;28;20236;-78
2023/02/01 00:46:36;;;;;;;2.43;2.00;;;;;;;4.12;100.00;98791.19;5011657;28;20214;-75
2023/02/01 00:49:03;;;;;;;1.97;1.77;;;;;;;4.12;100.00;98785.97;5011078;28;20211;-77
2023/02/01 00:51:30;;;;;;;2.77;2.00;;;;;;;4.18;100.00;98779.66;5011485;28;20233;-77
2023/02/01 00:53:57;;;;;;;1.93;1.73;;;;;;;4.23;100.00;98783.81;5011200;28;20623;-75
2023/02/01 00:56:24;;;;;;;3.13;2.43;;;;;;;4.20;100.00;98763.00;5011655;28;20204;-75
2023/02/01 00:58:50;;;;;;;3.03;2.27;;;;;;;4.21;100.00;98754.25;5011293;28;20214;-75
2023/02/01 01:01:20;;;;;;;5.13;2.33;;;;;;;4.14;100.00;98742.28;5011409;28;20246;-76
2023/02/01 01:03:51;;;;;;;2.43;2.10;;;;;;;4.04;100.00;98727.81;5011097;28;20252;-77
2023/02/01 01:06:20;;;;;;;2.60;1.93;;;;;;;4.02;100.00;98732.25;5011439;28;20210;-77
2023/02/01 01:08:46;;;;;;;2.20;2.00;;;;;;;3.91;100.00;98729.13;5011329;28;20229;-77
2023/02/01 01:11:16;;;;;;;2.77;2.07;;;;;;;3.83;100.00;98725.06;5011181;28;20687;-77
2023/02/01 01:13:43;;;;;;;9.30;2.20;;;;;;;3.87;100.00;98721.44;5011282;28;20228;-75
2023/02/01 01:16:11;;;;;;;2.37;1.57;;;;;;;3.86;100.00;98731.03;5011330;28;20232;-76
2023/02/01 01:18:38;;;;;;;2.33;1.93;;;;;;;3.86;100.00;98736.25;5011052;28;20216;-77
2023/02/01 01:21:07;;;;;;;2.10;1.90;;;;;;;3.90;100.00;98737.88;5010939;28;20577;-77
2023/02/01 01:23:34;;;;;;;2.47;1.77;;;;;;;3.96;100.00;98747.28;5011155;28;20229;-77
2023/02/01 01:26:01;;;;;;;1.80;1.70;;;;;;;4.04;100.00;98746.13;5011305;28;20309;-77
2023/02/01 01:28:28;;;;;;;2.57;1.70;;;;;;;4.08;100.00;98747.72;5011215;28;20230;-77
2023/02/01 01:30:54;;;;;;;3.13;1.90;;;;;;;4.12;100.00;98754.56;5010932;28;20205;-76
2023/02/01 01:33:21;;;;;;;1.77;1.63;;;;;;;4.20;100.00;98755.16;5011012;28;20242;-77
2023/02/01 01:35:47;;;;;;;1.60;1.50;;;;;;;4.22;100.00;98760.34;5011103;28;20214;-77
2023/02/01 01:38:15;;;;;;;1.90;1.53;;;;;;;4.32;100.00;98767.81;5011105;28;20680;-77
2023/02/01 01:40:46;;;;;;;1.90;1.50;;;;;;;4.33;100.00;98766.06;5010955;28;20211;-77
2023/02/01 01:43:15;;;;;;;1.73;1.53;;;;;;;4.35;100.00;98766.88;5011212;28;20357;-77
2023/02/01 01:45:41;;;;;;;2.43;1.60;;;;;;;4.30;100.00;98764.41;5014377;28;20233;-77
2023/02/01 01:48:12;;;;;;;1.60;1.50;;;;;;;4.29;100.00;98767.91;5014791;28;20215;-77
2023/02/01 01:50:42;;;;;;;1.87;1.57;;;;;;;4.37;100.00;98771.16;5014255;28;20706;-77
2023/02/01 01:53:12;;;;;;;1.60;1.47;;;;;;;4.37;100.00;98773.75;5014624;28;20222;-78
2023/02/01 01:55:44;;;;;;;1.67;1.50;;;;;;;4.41;100.00;98764.03;5014691;28;20207;-77
2023/02/01 01:58:15;;;;;;;1.30;1.20;;;;;;;4.40;100.00;98764.97;5014600;28;20224;-77
2023/02/01 02:00:42;;;;;;;2.53;1.43;;;;;;;4.43;100.00;98759.59;5011599;28;20220;-77
2023/02/01 02:03:15;;;;;;;1.83;1.60;;;;;;;4.47;100.00;98762.03;5011630;28;20215;-77
2023/02/01 02:05:42;;;;;;;1.40;1.30;;;;;;;4.50;100.00;98767.19;5013189;28;20234;-77
2023/02/01 02:08:09;;;;;;;1.63;1.47;;;;;;;4.53;100.00;98767.06;5014365;28;20222;-77
2023/02/01 02:13:23;;;;;;;2.60;1.63;;;;;;;4.53;100.00;98761.00;5014134;28;20360;-77
2023/02/01 02:15:59;;;;;;;1.70;1.50;;;;;;;4.55;100.00;98754.81;5014296;28;20225;-77
2023/02/01 02:18:31;;;;;;;1.47;1.20;;;;;;;4.59;100.00;98752.94;5014203;28;20212;-77
2023/02/01 02:21:14;;;;;;;1.40;1.30;;;;;;;4.57;100.00;98746.88;5013679;28;20214;-77
2023/02/01 02:24:19;;;;;;;1.63;1.53;;;;;;;4.55;100.00;98749.56;5013913;28;20231;-77
2023/02/01 02:27:04;;;;;;;2.97;1.40;;;;;;;4.59;100.00;98756.38;4996026;28;20210;-76
2023/02/01 02:30:16;;;;;;;1.57;1.40;;;;;;;4.59;100.00;98745.06;5013607;28;20232;-77
2023/02/01 02:33:35;;;;;;;1.37;1.20;;;;;;;4.61;100.00;98754.59;5013778;28;20212;-77
2023/02/01 02:36:09;;;;;;;1.53;1.43;;;;;;;4.58;100.00;98754.69;5001626;28;20210;-77
2023/02/01 02:38:45;;;;;;;1.30;1.20;;;;;;;4.56;100.00;98751.28;5013884;28;20222;-77
2023/02/01 02:47:23;;;;;;;1.73;1.33;;;;;;;4.58;100.00;98744.22;5013586;28;20209;-77
2023/02/01 02:54:45;;;;;;;1.53;1.43;;;;;;;4.59;100.00;98745.91;5013403;28;20277;-77
2023/02/01 02:55:33;;;;;;;3.33;1.70;;;;;;;4.59;100.00;98740.66;5012459;28;20211;-77
2023/02/01 03:06:18;;;;;;;1.93;1.60;;;;;;;4.58;100.00;98740.75;5013213;28;20210;-77
2023/02/01 03:08:45;;;;;;;2.40;2.10;;;;;;;4.52;100.00;98735.72;5013220;28;20215;-77
2023/02/01 03:11:14;;;;;;;2.03;1.80;;;;;;;4.57;100.00;98742.50;5012848;28;20207;-77
2023/02/01 03:13:45;;;;;;;1.90;1.70;;;;;;;4.56;100.00;98725.09;5012840;28;20231;-77
2023/02/01 03:16:18;;;;;;;2.17;1.77;;;;;;;4.54;100.00;98720.81;5012941;28;20206;-77
2023/02/01 03:18:52;;;;;;;2.27;2.07;;;;;;;4.54;100.00;98718.19;5012923;28;20211;-77
2023/02/01 03:21:27;;;;;;;2.40;1.90;;;;;;;4.54;100.00;98705.97;5012965;28;20210;-77
2023/02/01 03:23:57;;;;;;;2.50;2.10;;;;;;;4.53;100.00;98700.78;5012577;28;20737;-77
2023/02/01 03:26:27;;;;;;;2.47;2.00;;;;;;;4.47;100.00;98694.00;5012642;28;20676;-77
2023/02/01 03:29:00;;;;;;;2.30;2.10;;;;;;;4.41;100.00;98688.97;5012655;28;20215;-77
2023/02/01 03:31:29;;;;;;;2.70;2.47;;;;;;;4.36;100.00;98684.84;5012966;28;20200;-77
2023/02/01 03:33:56;;;;;;;4.53;2.10;;;;;;;4.39;100.00;98688.19;5012576;28;20231;-78
2023/02/01 03:36:29;;;;;;;2.40;2.20;;;;;;;4.34;100.00;98682.28;5012571;28;20211;-77
2023/02/01 03:39:03;;;;;;;2.80;2.20;;;;;;;4.36;100.00;98677.84;5012277;28;20206;-77
2023/02/01 03:41:36;;;;;;;2.20;2.00;;;;;;;4.31;100.00;98677.16;5012583;28;20210;-77
2023/02/01 03:44:12;;;;;;;2.03;1.80;;;;;;;4.32;100.00;98676.25;5014078;28;20231;-77
2023/02/01 03:46:44;;;;;;;2.73;1.90;;;;;;;4.35;100.00;98668.28;5014456;28;20219;-77
2023/02/01 03:49:17;;;;;;;2.67;2.00;;;;;;;4.38;100.00;98678.66;5012972;28;20222;-77
2023/02/01 03:51:45;;;;;;;2.00;1.70;;;;;;;4.34;100.00;98687.50;5013003;28;20212;-77
2023/02/01 03:54:15;;;;;;;2.33;1.93;;;;;;;4.39;100.00;98689.97;5013161;28;20237;-77
2023/02/01 03:56:45;;;;;;;2.60;1.90;;;;;;;4.42;100.00;98688.09;5012649;28;20213;-77
2023/02/01 03:59:12;;;;;;;2.47;1.90;;;;;;;4.41;100.00;98683.75;5012151;28;20211;-76
2023/02/01 04:01:39;;;;;;;2.27;1.83;;;;;;;4.42;100.00;98689.84;5012065;28;20688;-77
2023/02/01 04:04:06;;;;;;;2.60;1.60;;;;;;;4.43;100.00;98686.31;5012200;28;20232;-77
2023/02/01 04:06:32;;;;;;;1.87;1.70;;;;;;;4.38;100.00;98689.09;5012042;28;20207;-76
2023/02/01 04:09:00;;;;;;;2.07;1.70;;;;;;;4.39;100.00;98680.34;5011869;28;20589;-77
2023/02/01 04:11:28;;;;;;;2.00;1.73;;;;;;;4.34;100.00;98677.03;5011978;28;20218;-77
2023/02/01 04:13:55;;;;;;;2.30;1.80;;;;;;;4.34;100.00;98677.03;5011887;28;20336;-76
2023/02/01 04:16:22;;;;;;;1.57;1.40;;;;;;;4.33;100.00;98679.72;5012015;28;20231;-76
2023/02/01 04:18:48;;;;;;;2.77;1.70;;;;;;;4.32;100.00;98663.16;5011764;28;20207;-77
2023/02/01 04:21:15;;;;;;;4.43;1.63;;;;;;;4.27;100.00;98651.16;5011880;28;20218;-77
2023/02/01 04:23:41;;;;;;;2.47;1.70;;;;;;;4.16;100.00;98651.53;5011874;28;20239;-77
2023/02/01 04:26:09;;;;;;;1.83;1.67;;;;;;;4.17;100.00;98652.41;5011717;28;20226;-77
2023/02/01 04:28:35;;;;;;;2.67;1.87;;;;;;;4.13;100.00;98656.88;5011725;28;20616;-76
2023/02/01 04:31:02;;;;;;;1.73;1.63;;;;;;;4.16;100.00;98669.84;5011652;28;20235;-77
2023/02/01 04:33:28;;;;;;;1.70;1.60;;;;;;;4.20;100.00;98657.50;5011879;28;20230;-77
2023/02/01 04:35:55;;;;;;;1.87;1.73;;;;;;;4.21;100.00;98670.53;5011861;28;20215;-77
2023/02/01 04:38:22;;;;;;;1.80;1.70;;;;;;;4.22;100.00;98666.16;5011702;28;20207;-77
2023/02/01 04:40:49;;;;;;;1.90;1.70;;;;;;;4.21;100.00;98667.91;5011299;28;20210;-77
2023/02/01 04:43:17;;;;;;;2.73;1.87;;;;;;;4.21;100.00;98667.91;5011410;28;20211;-77
2023/02/01 04:45:48;;;;;;;2.03;1.50;;;;;;;4.25;100.00;98682.63;5011430;28;20704;-77
2023/02/01 04:48:14;;;;;;;1.47;1.37;;;;;;;4.30;100.00;98690.28;5011482;28;20209;-77
2023/02/01 04:50:41;;;;;;;1.93;1.57;;;;;;;4.35;100.00;98676.13;5011240;28;20692;-77
2023/02/01 04:53:07;;;;;;;1.73;1.60;;;;;;;4.46;100.00;98670.53;5011384;28;20221;-75
2023/02/01 04:55:34;;;;;;;3.03;2.10;;;;;;;4.51;100.00;98658.97;5011387;28;20218;-76
2023/02/01 04:58:00;;;;;;;1.90;1.73;;;;;;;4.54;100.00;98637.94;5011621;28;20209;-76
2023/02/01 05:00:28;;;;;;;1.93;1.73;;;;;;;4.53;100.00;98654.50;5011163;28;20219;-76
2023/02/01 05:02:55;;;;;;;1.80;1.70;;;;;;;4.57;100.00;98642.16;5011594;28;20215;-76
2023/02/01 05:05:21;;;;;;;2.20;1.53;;;;;;;4.45;100.00;98643.47;5011318;28;20229;-76
2023/02/01 05:07:47;;;;;;;1.67;1.57;;;;;;;4.32;100.00;98647.47;5011318;28;20210;-76
2023/02/01 05:10:14;;;;;;;1.97;1.60;;;;;;;4.26;100.00;98647.69;5011168;28;20213;-77
2023/02/01 05:15:25;;;;;;;2.03;1.60;;;;;;;4.42;100.00;98645.38;5011512;28;20230;-77
2023/02/01 05:17:53;;;;;;;3.20;1.90;;;;;;;4.47;100.00;98652.13;5011330;28;20232;-76
2023/02/01 05:20:19;;;;;;;2.17;1.87;;;;;;;4.54;100.00;98661.50;5014104;28;20215;-76
2023/02/01 05:22:46;;;;;;;2.17;1.83;;;;;;;4.59;100.00;98666.53;5014982;28;20211;-76
2023/02/01 05:25:12;;;;;;;2.30;1.80;;;;;;;4.64;100.00;98662.81;5015317;28;20239;-76
2023/02/01 05:27:39;;;;;;;3.80;1.93;;;;;;;4.68;100.00;98655.72;5015190;28;20237;-76
2023/02/01 05:30:06;;;;;;;2.23;1.70;;;;;;;4.72;100.00;98662.56;5014861;28;20213;-76
2023/02/01 05:32:33;;;;;;;1.93;1.60;;;;;;;4.74;100.00;98666.81;5014970;28;20303;-76
2023/02/01 05:35:01;;;;;;;2.63;2.07;;;;;;;4.76;100.00;98667.59;5014806;28;20679;-76
2023/02/01 05:37:28;;;;;;;3.43;1.83;;;;;;;4.74;100.00;98672.06;5014683;28;20213;-76
2023/02/01 05:39:54;;;;;;;2.13;1.87;;;;;;;4.74;100.00;98661.59;5014447;28;20242;-76
2023/02/01 05:42:21;;;;;;;2.77;1.83;;;;;;;4.69;100.00;98666.13;5014869;28;20607;-76
2023/02/01 05:44:47;;;;;;;1.90;1.80;;;;;;;4.68;100.00;98672.28;5014639;28;20253;-77
2023/02/01 05:47:14;;;;;;;2.43;1.80;;;;;;;4.67;100.00;98665.34;5014706;28;20215;-76
2023/02/01 05:49:40;;;;;;;2.60;1.80;;;;;;;4.69;100.00;98657.41;5014382;28;20224;-76
2023/02/01 05:52:08;;;;;;;2.03;1.83;;;;;;;4.70;100.00;98675.69;5014637;28;20696;-76
2023/02/01 05:54:34;;;;;;;1.77;1.67;;;;;;;4.65;100.00;98671.56;5014536;28;20239;-77
2023/02/01 05:57:01;;;;;;;1.67;1.40;;;;;;;4.64;100.00;98688.19;5014308;28;20698;-76
2023/02/01 05:59:27;;;;;;;1.77;1.60;;;;;;;4.63;100.00;98683.81;5014182;28;20212;-76
2023/02/01 06:01:55;;;;;;;1.70;1.53;;;;;;;4.67;100.00;98673.22;5014284;28;20222;-76
2023/02/01 06:04:22;;;;;;;2.10;1.57;;;;;;;4.81;100.00;98676.16;5014159;28;20684;-76
2023/02/01 06:06:51;;;;;;;1.60;1.50;;;;;;;4.89;100.00;98673.25;5014358;28;20549;-76
2023/02/01 06:09:19;;;;;;;1.80;1.50;;;;;;;4.87;100.00;98668.06;5013672;28;20215;-76
2023/02/01 06:11:48;;;;;;;1.70;1.60;;;;;;;4.90;100.00;98667.09;5013877;28;20214;-76
2023/02/01 06:14:14;;;;;;;1.90;1.50;;;;;;;4.88;100.00;98687.25;5014327;28;20592;-76
2023/02/01 06:16:41;;;;;;;2.10;1.90;;;;;;;4.90;100.00;98688.88;5014247;28;20207;-77
2023/02/01 06:19:08;;;;;;;1.57;1.40;;;;;;;4.93;100.00;98690.53;5014100;28;20229;-76
2023/02/01 06:21:36;;;;;;;1.73;1.63;;;;;;;4.96;100.00;98678.16;5014205;28;20238;-77
2023/02/01 06:24:02;;;;;;;1.93;1.57;;;;;;;5.04;100.00;98690.97;5013919;28;20242;-77
2023/02/01 06:26:30;;;;;;;1.63;1.53;;;;;;;5.05;100.00;98692.69;5013929;28;20230;-77
2023/02/01 06:28:57;;;;;;;1.70;1.60;;;;;;;5.09;100.00;98684.69;5013641;28;20215;-76
2023/02/01 06:31:24;;;;;;;2.63;2.03;;;;;;;5.10;100.00;98685.50;5012630;28;20646;-76
2023/02/01 06:33:53;;;;;;;1.80;1.70;;;;;;;5.11;100.00;98688.06;5014092;28;20232;-76
2023/02/01 06:36:20;;;;;;;5.47;4.30;;;;;;;5.14;100.00;98679.25;5013789;28;20257;-76
2023/02/01 06:38:47;;;;;;;1.77;1.67;;;;;;;5.16;100.00;98688.75;5013512;28;20213;-77
2023/02/01 06:41:17;;;;;;;3.67;2.40;;;;;;;5.21;100.00;98678.97;5013842;28;20212;-76
2023/02/01 06:43:45;;;;;;;4.67;2.27;;;;;;;5.26;100.00;98673.53;5013437;28;20226;-76
2023/02/01 06:46:13;;;;;;;3.60;2.10;;;;;;;5.24;100.00;98670.09;5013558;28;20237;-73
2023/02/01 06:48:40;;;;;;;4.73;2.47;;;;;;;5.24;100.00;98675.34;5013269;28;20206;-76
2023/02/01 06:51:07;;;;;;;3.73;2.20;;;;;;;5.23;100.00;98682.38;5013361;28;20233;-77
2023/02/01 06:53:34;;;;;;;4.00;2.47;;;;;;;5.24;100.00;98694.53;5013184;28;20236;-76
2023/02/01 06:56:02;;;;;;;4.00;2.73;;;;;;;5.27;100.00;98691.81;5013378;28;20212;-77
2023/02/01 06:58:30;;;;;;;6.20;2.90;;;;;;;5.24;100.00;98694.53;5013203;28;20210;-76
2023/02/01 07:00:58;;;;;;;3.43;2.23;;;;;;;5.24;100.00;98707.66;5013159;28;20213;-77
2023/02/01 07:03:25;;;;;;;3.97;2.67;;;;;;;5.28;100.00;98706.63;5013309;28;20238;-76
2023/02/01 07:05:58;;;;;;;5.47;2.93;;;;;;;5.29;100.00;98699.59;5013168;28;20242;-76
2023/02/01 07:08:24;;;;;;;7.10;2.90;;;;;;;5.31;98.94;98695.16;5013079;28;20228;-76
2023/02/01 07:10:51;;;;;;;4.77;3.00;;;;;;;5.31;99.50;98701.25;5012593;28;20214;-76
2023/02/01 07:13:17;;;;;;;6.37;3.33;;;;;;;5.35;98.45;98715.09;5012880;28;20220;-76
2023/02/01 07:15:44;;;;;;;8.80;3.00;;;;;;;5.39;97.84;98709.69;5013002;28;20234;-76
2023/02/01 07:18:14;;;;;;;5.30;3.00;;;;;;;5.41;97.41;98720.09;5013210;28;20222;-76
2023/02/01 07:20:40;;;;;;;6.20;2.97;;;;;;;5.40;96.91;98714.00;5012691;28;20213;-76
2023/02/01 07:23:07;;;;;;;6.90;3.20;;;;;;;5.40;97.09;98721.88;5012833;28;20223;-76
2023/02/01 07:25:35;;;;;;;6.50;3.23;;;;;;;5.41;96.15;98713.09;5012663;28;20233;-76
2023/02/01 07:28:02;;;;;;;7.23;2.80;;;;;;;5.48;95.41;98717.16;5012943;28;20214;-76
2023/02/01 07:30:28;;;;;;;5.23;3.00;;;;;;;5.47;95.45;98728.56;5012627;28;20218;-76
2023/02/01 07:32:55;;;;;;;5.13;3.10;;;;;;;5.47;95.08;98733.81;5012767;28;20666;-76
2023/02/01 07:35:22;;;;;;;4.83;2.90;;;;;;;5.49;94.47;98723.28;5012476;28;20382;-76
2023/02/01 07:37:49;;;;;;;4.83;3.43;;;;;;;5.50;94.73;98728.44;5012624;28;20215;-76
2023/02/01 07:40:15;;;;;;;7.00;3.33;;;;;;;5.51;94.53;98719.66;5009482;28;20237;-76
2023/02/01 07:42:42;;;;;;;8.53;3.53;;;;;;;5.49;94.21;98716.25;5009511;28;20205;-76
2023/02/01 07:45:09;;;;;;;5.40;3.17;;;;;;;5.53;94.03;98716.97;5011578;28;20712;-76
2023/02/01 07:47:36;;;;;;;6.20;4.10;;;;;;;5.57;94.09;98705.47;5012516;28;20747;-76
2023/02/01 07:50:02;;;;;;;7.40;3.53;;;;;;;5.57;93.52;98711.53;5010238;28;20211;-76
2023/02/01 07:52:30;;;;;;;8.63;3.50;;;;;;;5.57;93.53;98708.91;5009588;28;20306;-76
2023/02/01 07:54:57;;;;;;;5.13;3.10;;;;;;;5.60;93.56;98714.06;5010536;28;20767;-76
2023/02/01 07:57:23;;;;;;;6.50;3.20;;;;;;;5.60;92.98;98713.19;5012489;28;20221;-76
2023/02/01 08:02:33;;;;;;;5.90;3.10;;;;;;;5.62;92.97;98712.22;5012235;28;20205;-77
2023/02/01 08:05:00;;;;;;;7.67;3.50;;;;;;;5.70;93.30;98718.03;5012037;28;20254;-76
2023/02/01 08:07:26;;;;;;;7.17;3.60;;;;;;;5.68;92.83;98701.47;5012144;28;20229;-75
2023/02/01 08:09:54;;;;;;;6.87;3.00;;;;;;;5.74;92.31;98695.16;5010420;28;20212;-76
2023/02/01 08:12:21;;;;;;;8.40;3.70;;;;;;;5.74;92.09;98695.16;5009408;28;20825;-76
2023/02/01 08:14:47;;;;;;;8.60;3.50;;;;;;;5.74;92.23;98695.97;5009347;28;20229;-76
2023/02/01 08:17:14;;;;;;;7.17;3.27;;;;;;;5.76;91.52;98704.66;5011773;28;20208;-77
2023/02/01 08:19:40;;;;;;;7.10;3.33;;;;;;;5.77;91.65;98705.50;5011546;28;20565;-77
2023/02/01 08:22:07;;;;;;;8.50;3.00;;;;;;;5.78;92.14;98713.31;5012055;28;20214;-77
2023/02/01 08:24:33;;;;;;;6.27;3.00;;;;;;;5.87;91.72;98710.31;5011828;28;20435;-77
2023/02/01 08:27:02;;;;;;;9.57;3.00;;;;;;;5.95;90.25;98712.66;5011701;28;20269;-77
2023/02/01 08:29:29;;;;;;;9.10;3.70;;;;;;;5.98;89.79;98718.63;5011535;28;20261;-77
2023/02/01 08:31:56;;;;;;;9.67;3.20;;;;;;;6.05;88.76;98717.44;5011828;28;20215;-77
2023/02/01 08:34:22;;;;;;;5.30;2.70;;;;;;;6.08;89.28;98724.31;5011576;28;20233;-77
2023/02/01 08:36:51;;;;;;;5.87;2.80;;;;;;;6.14;88.27;98714.44;5011590;28;20220;-77
2023/02/01 08:39:18;;;;;;;7.40;3.30;;;;;;;6.17;87.63;98716.91;5011363;28;20700;-77
2023/02/01 08:42:50;;;;;;;5.80;3.00;;;;;;;6.18;87.42;98726.50;5011793;28;20219;-77
2023/02/01 08:44:33;;;;;;;8.23;3.27;;;;;;;6.21;86.24;98729.00;5011333;28;20329;-77
2023/02/01 08:46:59;;;;;;;6.17;3.20;;;;;;;6.21;85.61;98725.50;5011454;28;20228;-77
2023/02/01 08:49:26;;;;;;;7.97;3.30;;;;;;;6.19;85.40;98740.47;5011437;28;20212;-77
2023/02/01 08:51:52;;;;;;;5.07;2.97;;;;;;;6.17;85.14;98732.66;5011713;28;20213;-77
2023/02/01 08:54:19;;;;;;;9.73;3.37;;;;;;;6.15;85.15;98739.75;5010632;28;20701;-76
2023/02/01 08:56:45;;;;;;;4.70;2.77;;;;;;;6.15;85.63;98739.75;5011737;28;20223;-77
2023/02/01 08:59:12;;;;;;;6.80;2.73;;;;;;;6.12;85.34;98742.50;5011097;28;20205;-77
2023/02/01 09:01:40;;;;;;;6.63;2.60;;;;;;;6.15;84.30;98734.50;5011323;28;20242;-76
2023/02/01 09:04:06;;;;;;;7.80;3.20;;;;;;;6.11;85.13;98738.19;5011681;28;20245;-77
2023/02/01 09:06:33;;;;;;;8.23;3.07;;;;;;;6.07;85.96;98757.59;5011364;28;20233;-74
2023/02/01 09:08:59;;;;;;;6.83;2.80;;;;;;;6.10;87.10;98757.47;5010933;28;20238;-77
2023/02/01 09:11:26;;;;;;;5.87;2.90;;;;;;;6.14;87.01;98753.81;5009576;28;20215;-77
2023/02/01 09:13:53;;;;;;;11.50;3.33;;;;;;;6.15;86.35;98762.50;5006807;28;20285;-76
2023/02/01 09:16:19;;;;;;;6.67;3.20;;;;;;;6.11;86.71;98761.78;5008082;28;20211;-77
2023/02/01 09:18:47;;;;;;;7.50;2.77;;;;;;;6.10;87.08;98762.72;5010354;28;20243;-76
2023/02/01 09:21:13;;;;;;;5.63;2.67;;;;;;;6.11;87.42;98761.78;5010514;28;20224;-76
2023/02/01 09:23:40;;;;;;;7.10;3.50;;;;;;;6.09;89.94;98779.38;5008411;28;20247;-76
2023/02/01 09:26:07;;;;;;;7.57;3.43;;;;;;;6.10;91.35;98788.94;5010340;28;20232;-77
2023/02/01 09:28:33;;;;;;;7.20;3.30;;;;;;;6.15;91.68;98781.75;5010232;28;20282;-77
2023/02/01 09:31:01;;;;;;;6.33;2.50;;;;;;;6.26;91.07;98782.16;5010083;28;20207;-77
2023/02/01 09:33:29;;;;;;;5.73;2.80;;;;;;;6.39;89.60;98767.59;5010165;28;20232;-76
2023/02/01 09:36:01;;;;;;;8.37;3.10;;;;;;;6.46;88.78;98761.16;5010936;28;20224;-77
2023/02/01 09:38:28;;;;;;;5.53;2.63;;;;;;;6.46;88.23;98761.16;5011142;28;20212;-77
2023/02/01 09:40:55;;;;;;;8.20;2.90;;;;;;;6.40;86.93;98752.72;5009116;28;20222;-76
2023/02/01 09:43:38;;;;;;;6.63;2.83;;;;;;;6.33;86.07;98744.22;5018253;28;20231;-75
2023/02/01 09:46:20;;;;;;;8.57;3.27;;;;;;;6.32;86.01;98774.03;5030861;28;20211;-77
2023/02/01 09:48:48;;;;;;;9.17;2.50;;;;;;;6.30;85.36;98777.63;5030615;28;20215;-76
2023/02/01 09:51:23;;;;;;;6.97;3.40;;;;;;;6.32;84.67;98763.53;5030684;28;20214;-76
2023/02/01 09:53:59;;;;;;;9.17;2.87;;;;;;;6.35;83.91;98758.13;5030656;28;20242;-77
2023/02/01 09:56:34;;;;;;;8.53;2.67;;;;;;;6.37;84.04;98758.94;5019747;28;20208;-76
2023/02/01 09:59:10;;;;;;;11.53;2.87;;;;;;;6.47;82.95;98739.22;5007352;28;20209;-76
2023/02/01 10:01:37;;;;;;;8.30;2.97;;;;;;;6.47;81.06;98735.78;5010819;28;20226;-76
2023/02/01 10:04:07;;;;;;;6.87;3.13;;;;;;;6.45;80.17;98738.47;5010509;28;20607;-76
2023/02/01 10:06:59;;;;;;;7.93;2.90;;;;;;;6.40;80.75;98736.97;5014247;28;20599;-77
2023/02/01 10:09:38;;;;;;;7.50;2.73;;;;;;;6.37;80.68;98743.19;5014011;28;20672;-76
2023/02/01 10:12:32;;;;;;;9.53;2.93;;;;;;;6.34;80.33;98745.94;5014298;28;20230;-76
2023/02/01 10:15:10;;;;;;;7.17;2.53;;;;;;;6.35;79.46;98750.25;5011564;28;20242;-76
2023/02/01 10:17:53;;;;;;;8.93;2.90;;;;;;;6.33;79.43;98761.75;5014189;28;20287;-76
2023/02/01 10:20:26;;;;;;;9.07;2.77;;;;;;;6.34;78.87;98769.56;5013786;28;20209;-76
2023/02/01 10:23:07;;;;;;;10.43;3.05;;;;;;;6.34;78.13;98771.34;5013176;28;20925;-76
2023/02/01 10:25:49;;;;;;;12.37;3.00;;;;;;;6.32;78.88;98768.78;5014186;28;20224;-76
2023/02/01 10:28:18;;;;;;;10.97;2.70;;;;;;;6.38;78.39;98773.78;5013118;28;20230;-76
2023/02/01 10:30:46;;;;;;;11.00;2.57;;;;;;;6.46;78.04;98770.81;5013629;28;20209;-76
2023/02/01 10:33:17;;;;;;;8.30;2.70;;;;;;;6.55;77.26;98765.16;5013478;28;20243;-76
2023/02/01 10:35:46;;;;;;;7.67;2.50;;;;;;;6.61;76.62;98760.53;5013810;28;20215;-77
2023/02/01 10:38:25;;;;;;;10.93;3.10;;;;;;;6.65;76.80;98762.06;5012727;28;20482;-76
2023/02/01 10:40:54;;;;;;;12.53;3.10;;;;;;;6.67;76.97;98765.50;5013754;28;20209;-76
2023/02/01 10:43:21;;;;;;;7.67;2.53;;;;;;;6.71;77.37;98760.97;5013526;28;20228;-75
2023/02/01 10:45:47;;;;;;;5.93;2.63;;;;;;;6.75;77.05;98755.50;5013556;28;20750;-76
2023/02/01 10:48:14;;;;;;;9.17;3.00;;;;;;;6.81;76.44;98763.13;5013451;28;20229;-74
2023/02/01 10:50:47;;;;;;;15.20;2.90;;;;;;;6.83;76.75;98758.63;5013298;28;20244;-75
2023/02/01 10:53:20;;;;;;;8.63;3.13;;;;;;;6.83;77.26;98771.78;5013222;28;20216;-76
2023/02/01 10:55:51;;;;;;;7.27;2.60;;;;;;;6.80;75.25;98764.03;5040710;23;20741;-82
2023/02/01 10:58:19;;;;;;;13.20;2.97;;;;;;;6.78;76.26;98757.97;5033051;28;20207;-81
2023/02/01 11:00:49;;;;;;;8.80;2.80;;;;;;;6.75;75.28;98742.38;5033161;28;20209;-80
2023/02/01 11:03:34;;;;;;;11.43;2.50;;;;;;;6.80;75.73;98745.66;5033309;28;20222;-81
2023/02/01 11:06:02;;;;;;;7.07;2.43;;;;;;;6.76;75.82;98751.94;5014793;28;20235;-82
2023/02/01 11:08:30;;;;;;;7.20;2.40;;;;;;;6.76;74.94;98746.69;5012988;28;20232;-82
2023/02/01 11:11:02;;;;;;;7.90;2.17;;;;;;;6.78;75.06;98752.72;5012917;28;20214;-81
2023/02/01 11:13:35;;;;;;;6.67;3.10;;;;;;;6.79;74.94;98754.44;5013384;28;20671;-82
2023/02/01 11:16:03;;;;;;;7.17;2.53;;;;;;;6.77;75.94;98761.53;5012864;28;20748;-82
2023/02/01 11:18:35;;;;;;;9.40;2.70;;;;;;;6.72;75.16;98757.41;5012703;28;20206;-85
2023/02/01 11:21:03;;;;;;;7.97;2.30;;;;;;;6.70;75.86;98759.25;5012770;28;20220;-84
2023/02/01 11:23:33;;;;;;;10.83;3.10;;;;;;;6.77;75.56;98745.78;5013211;28;20216;-83
2023/02/01 11:26:01;;;;;;;7.87;2.57;;;;;;;6.80;74.11;98734.28;5013306;28;20649;-83
2023/02/01 11:28:32;;;;;;;7.70;2.47;;;;;;;6.77;74.90;98740.53;5013050;28;20232;-84
2023/02/01 11:31:01;;;;;;;9.83;3.00;;;;;;;6.74;74.28;98724.91;5012572;28;20687;-84
2023/02/01 11:33:34;;;;;;;8.67;3.20;;;;;;;6.70;74.02;98712.81;5012742;28;20301;-84
2023/02/01 11:36:07;;;;;;;8.00;2.93;;;;;;;6.70;73.10;98710.19;5012933;28;20243;-84
2023/02/01 11:38:35;;;;;;;10.10;2.57;;;;;;;6.69;71.51;98699.75;5012805;28;20215;-84
2023/02/01 11:41:15;;;;;;;10.87;2.60;;;;;;;6.75;73.84;98708.22;5012543;28;20222;-84
2023/02/01 11:43:54;;;;;;;10.70;2.87;;;;;;;6.81;72.80;98684.31;5012446;28;20213;-84
2023/02/01 11:46:26;;;;;;;6.67;2.50;;;;;;;6.83;70.82;98671.94;5012390;28;20220;-84
2023/02/01 11:48:54;;;;;;;8.40;2.83;;;;;;;6.85;71.49;98680.59;5012138;28;20232;-84
2023/02/01 11:51:46;;;;;;;6.80;2.00;;;;;;;6.83;69.93;98661.44;5012527;28;20213;-84
2023/02/01 11:54:40;;;;;;;8.40;2.47;;;;;;;6.84;69.53;98662.28;5012186;28;20229;-87
2023/02/01 11:57:21;;;;;;;6.33;1.93;;;;;;;6.86;69.74;98663.94;5007697;28;20216;-88
2023/02/01 12:00:03;;;;;;;8.60;2.83;;;;;;;6.90;70.05;98662.84;5011968;28;20699;-88
2023/02/01 12:03:02;;;;;;;5.37;2.17;;;;;;;6.88;69.77;98659.44;5012215;28;20216;-88
2023/02/01 12:05:40;;;;;;;8.17;2.30;;;;;;;6.83;67.66;98640.41;5012356;28;20235;-88
2023/02/01 12:08:25;;;;;;;4.43;2.00;;;;;;;6.83;66.52;98636.94;5012660;28;20236;-88
2023/02/01 12:11:09;;;;;;;6.23;2.80;;;;;;;6.82;66.10;98633.47;5012594;28;20212;-87
2023/02/01 12:13:47;;;;;;;6.67;2.50;;;;;;;6.78;66.67;98641.56;5012349;28;20218;-88